createdAt,value
2023-02-13T00:01:02.886Z,8.30
2023-02-13T00:03:30.558Z,8.25
2023-02-13T00:05:58.442Z,8.25
2023-02-13T00:08:26.296Z,8.27
2023-02-13T00:10:54.060Z,8.24
2023-02-13T00:13:23.214Z,8.24
2023-02-13T00:15:57.499Z,8.22
2023-02-13T00:18:25.577Z,8.23
2023-02-13T00:21:04.285Z,8.22
2023-02-13T00:23:33.587Z,8.25
2023-02-13T00:26:02.483Z,8.26
2023-02-13T00:28:31.899Z,8.26
2023-02-13T00:31:05.025Z,8.27
2023-02-13T00:33:33.204Z,8.27
2023-02-13T00:36:07.611Z,8.24
2023-02-13T00:38:35.552Z,8.22
2023-02-13T00:41:03.319Z,8.20
2023-02-13T00:43:33.137Z,8.22
2023-02-13T00:46:01.224Z,8.22
2023-02-13T00:48:30.376Z,8.20
2023-02-13T00:50:58.772Z,8.17
2023-02-13T00:53:27.419Z,8.16
2023-02-13T00:55:55.363Z,8.16
2023-02-13T00:58:24.376Z,8.15
2023-02-13T01:00:54.547Z,8.17
2023-02-13T01:03:23.554Z,8.17
2023-02-13T01:05:52.295Z,8.16
2023-02-13T01:08:21.592Z,8.14
2023-02-13T01:10:50.019Z,8.16
2023-02-13T01:13:19.505Z,8.16
2023-02-13T01:15:48.516Z,8.17
2023-02-13T01:18:19.701Z,8.17
2023-02-13T01:20:58.095Z,8.16
2023-02-13T01:23:26.238Z,8.16
2023-02-13T01:25:54.001Z,8.15
2023-02-13T01:28:21.874Z,8.16
2023-02-13T01:30:54.380Z,8.14
2023-02-13T01:33:25.898Z,8.16
2023-02-13T01:35:54.035Z,8.16
2023-02-13T01:38:21.642Z,8.11
2023-02-13T01:40:50.811Z,8.11
2023-02-13T01:43:19.427Z,8.11
2023-02-13T01:45:50.107Z,8.12
2023-02-13T01:48:22.258Z,8.10
2023-02-13T01:50:58.561Z,8.11
2023-02-13T01:53:30.288Z,8.10
2023-02-13T01:56:04.138Z,8.09
2023-02-13T01:58:36.865Z,8.09
2023-02-13T02:01:07.130Z,8.06
2023-02-13T02:03:39.225Z,8.05
2023-02-13T02:06:15.742Z,8.04
2023-02-13T02:08:44.043Z,8.04
2023-02-13T02:11:26.960Z,8.00
2023-02-13T02:13:55.957Z,7.96
2023-02-13T02:16:33.466Z,7.97
2023-02-13T02:19:05.260Z,7.97
2023-02-13T02:21:57.385Z,7.95
2023-02-13T02:24:54.983Z,7.94
2023-02-13T02:27:42.504Z,7.95
2023-02-13T02:30:34.006Z,7.96
2023-02-13T02:33:14.976Z,7.97
2023-02-13T02:35:54.278Z,7.98
2023-02-13T02:38:41.475Z,7.97
2023-02-13T02:41:36.234Z,7.96
2023-02-13T02:44:16.664Z,7.97
2023-02-13T02:47:11.731Z,7.96
2023-02-13T02:50:02.135Z,7.94
2023-02-13T02:52:40.641Z,7.95
2023-02-13T02:55:17.211Z,7.92
2023-02-13T02:58:19.012Z,7.92
2023-02-13T03:01:05.675Z,7.91
2023-02-13T03:03:53.029Z,7.95
2023-02-13T03:06:26.708Z,7.95
2023-02-13T03:09:16.281Z,7.92
2023-02-13T03:12:07.349Z,7.92
2023-02-13T03:14:35.363Z,7.90
2023-02-13T03:17:22.132Z,7.89
2023-02-13T03:20:33.017Z,7.90
2023-02-13T03:23:18.120Z,7.91
2023-02-13T03:26:06.889Z,7.93
2023-02-13T03:28:58.223Z,7.95
2023-02-13T03:31:35.960Z,7.97
2023-02-13T03:34:07.337Z,7.94
2023-02-13T03:37:03.677Z,7.92
2023-02-13T03:39:45.325Z,7.92
2023-02-13T03:42:16.422Z,7.89
2023-02-13T03:45:10.955Z,7.90
2023-02-13T03:47:40.544Z,7.91
2023-02-13T03:50:10.117Z,7.91
2023-02-13T03:52:42.416Z,7.91
2023-02-13T03:55:32.040Z,7.91
2023-02-13T03:58:20.866Z,7.92
2023-02-13T04:00:51.966Z,7.91
2023-02-13T04:03:26.026Z,7.92
2023-02-13T04:05:58.787Z,7.94
2023-02-13T04:08:26.608Z,7.94
2023-02-13T04:11:03.794Z,7.91
2023-02-13T04:13:35.782Z,7.88
2023-02-13T04:16:11.355Z,7.88
2023-02-13T04:18:40.455Z,7.86
2023-02-13T04:21:08.958Z,7.87
2023-02-13T04:23:37.217Z,7.84
2023-02-13T04:26:10.478Z,7.81
2023-02-13T04:28:38.321Z,7.82
2023-02-13T04:31:06.629Z,7.82
2023-02-13T04:33:34.550Z,7.86
2023-02-13T04:36:02.350Z,7.84
2023-02-13T04:38:30.308Z,7.84
2023-02-13T04:40:58.693Z,7.84
2023-02-13T04:43:28.076Z,7.83
2023-02-13T04:45:55.923Z,7.83
2023-02-13T04:48:23.728Z,7.79
2023-02-13T04:50:51.530Z,7.77
2023-02-13T04:53:19.318Z,7.75
2023-02-13T04:55:47.116Z,7.76
2023-02-13T04:58:14.916Z,7.77
2023-02-13T05:00:44.495Z,7.77
2023-02-13T05:03:14.144Z,7.76
2023-02-13T05:05:42.009Z,7.75
2023-02-13T05:08:10.282Z,7.74
2023-02-13T05:10:38.140Z,7.73
2023-02-13T05:13:05.982Z,7.72
2023-02-13T05:15:34.075Z,7.71
2023-02-13T05:18:03.202Z,7.70
2023-02-13T05:20:31.004Z,7.66
2023-02-13T05:23:17.419Z,7.63
2023-02-13T05:25:45.236Z,7.62
2023-02-13T05:28:26.957Z,7.62
2023-02-13T05:30:54.995Z,7.63
2023-02-13T05:33:24.218Z,7.62
2023-02-13T05:35:51.986Z,7.63
2023-02-13T05:38:19.942Z,7.63
2023-02-13T05:40:47.840Z,7.63
2023-02-13T05:43:15.663Z,7.61
2023-02-13T05:45:43.502Z,7.59
2023-02-13T05:48:11.283Z,7.60
2023-02-13T05:50:40.897Z,7.60
2023-02-13T05:53:08.724Z,7.61
2023-02-13T05:55:36.523Z,7.62
2023-02-13T05:58:04.334Z,7.60
2023-02-13T06:00:32.131Z,7.59
2023-02-13T06:03:00.048Z,7.61
2023-02-13T06:05:28.065Z,7.60
2023-02-13T06:07:57.605Z,7.56
2023-02-13T06:10:25.347Z,7.56
2023-02-13T06:12:53.138Z,7.55
2023-02-13T06:15:20.941Z,7.57
2023-02-13T06:17:48.743Z,7.59
2023-02-13T06:20:16.537Z,7.59
2023-02-13T06:22:44.364Z,7.62
2023-02-13T06:25:13.685Z,7.64
2023-02-13T06:27:41.479Z,7.67
2023-02-13T06:30:10.210Z,7.66
2023-02-13T06:32:38.093Z,7.64
2023-02-13T06:35:06.416Z,7.64
2023-02-13T06:37:34.684Z,7.65
2023-02-13T06:40:02.500Z,7.67
2023-02-13T06:42:31.694Z,7.69
2023-02-13T06:44:59.730Z,7.69
2023-02-13T06:47:27.475Z,7.69
2023-02-13T06:49:55.402Z,7.67
2023-02-13T06:52:23.393Z,7.69
2023-02-13T06:54:51.229Z,7.70
2023-02-13T06:57:19.234Z,7.68
2023-02-13T06:59:48.431Z,7.68
2023-02-13T07:02:16.245Z,7.68
2023-02-13T07:04:44.019Z,7.68
2023-02-13T07:07:11.899Z,7.67
2023-02-13T07:09:41.165Z,7.64
2023-02-13T07:12:09.301Z,7.64
2023-02-13T07:14:37.086Z,7.66
2023-02-13T07:17:06.263Z,7.69
2023-02-13T07:19:34.234Z,7.68
2023-02-13T07:22:02.090Z,7.70
2023-02-13T07:24:29.848Z,7.72
2023-02-13T07:26:57.726Z,7.74
2023-02-13T07:29:25.617Z,7.75
2023-02-13T07:31:53.474Z,7.75
2023-02-13T07:34:22.710Z,7.76
2023-02-13T07:36:50.450Z,7.78
2023-02-13T07:39:19.193Z,7.79
2023-02-13T07:41:47.004Z,7.78
2023-02-13T07:44:17.175Z,7.79
2023-02-13T07:46:45.135Z,7.80
2023-02-13T07:49:12.960Z,7.82
2023-02-13T07:51:42.138Z,7.81
2023-02-13T07:54:09.990Z,7.84
2023-02-13T07:56:37.826Z,7.85
2023-02-13T07:59:06.959Z,7.89
2023-02-13T08:01:35.753Z,7.92
2023-02-13T08:04:03.706Z,7.93
2023-02-13T08:06:31.535Z,7.95
2023-02-13T08:09:18.150Z,7.98
2023-02-13T08:11:54.835Z,8.01
2023-02-13T08:14:23.551Z,8.05
2023-02-13T08:16:51.786Z,8.09
2023-02-13T08:19:19.818Z,8.13
2023-02-13T08:21:47.834Z,8.18
2023-02-13T08:24:16.995Z,8.22
2023-02-13T08:26:44.808Z,8.25
2023-02-13T08:29:12.654Z,8.32
2023-02-13T08:31:40.532Z,8.37
2023-02-13T08:34:08.336Z,8.43
2023-02-13T08:36:36.167Z,8.49
2023-02-13T08:39:04.152Z,8.55
2023-02-13T08:41:33.361Z,8.59
2023-02-13T08:44:01.131Z,8.62
2023-02-13T08:46:29.115Z,8.67
2023-02-13T08:48:56.859Z,8.72
2023-02-13T08:51:24.641Z,8.79
2023-02-13T08:53:52.463Z,8.87
2023-02-13T08:56:20.413Z,8.96
2023-02-13T08:58:51.159Z,9.02
2023-02-13T09:01:19.834Z,9.12
2023-02-13T09:03:47.686Z,9.23
2023-02-13T09:06:15.485Z,9.33
2023-02-13T09:08:43.297Z,9.40
2023-02-13T09:11:11.239Z,9.44
2023-02-13T09:13:39.084Z,9.52
2023-02-13T09:16:10.116Z,9.62
2023-02-13T09:18:38.246Z,9.68
2023-02-13T09:21:07.094Z,9.73
2023-02-13T09:23:37.163Z,9.82
2023-02-13T09:26:07.484Z,9.86
2023-02-13T09:28:36.403Z,9.75
2023-02-13T09:31:08.218Z,9.70
2023-02-13T09:33:36.407Z,9.67
2023-02-13T09:36:08.052Z,9.71
2023-02-13T09:38:36.117Z,9.81
2023-02-13T09:41:06.405Z,9.87
2023-02-13T09:43:40.729Z,10.02
2023-02-13T09:46:15.080Z,10.09
2023-02-13T09:48:46.132Z,10.10
2023-02-13T09:51:17.474Z,10.18
2023-02-13T09:53:52.169Z,10.22
2023-02-13T09:56:30.308Z,10.36
2023-02-13T09:59:02.211Z,10.49
2023-02-13T10:01:35.018Z,10.65
2023-02-13T10:04:31.276Z,10.83
2023-02-13T10:07:14.426Z,10.91
2023-02-13T10:09:51.675Z,11.03
2023-02-13T10:12:37.604Z,11.20
2023-02-13T10:15:16.937Z,11.39
2023-02-13T10:17:49.197Z,11.44
2023-02-13T10:20:27.271Z,11.61
2023-02-13T10:23:00.623Z,11.69
2023-02-13T10:25:34.574Z,11.63
2023-02-13T10:28:11.102Z,11.74
2023-02-13T10:30:51.372Z,11.90
2023-02-13T10:33:29.464Z,11.99
2023-02-13T10:36:03.542Z,11.97
2023-02-13T10:38:33.754Z,12.15
2023-02-13T10:41:14.426Z,12.29
2023-02-13T10:43:59.004Z,12.59
2023-02-13T10:46:36.095Z,12.78
2023-02-13T10:49:22.074Z,12.96
2023-02-13T10:51:57.172Z,13.18
2023-02-13T10:54:48.408Z,13.44
2023-02-13T10:57:22.960Z,13.73
2023-02-13T11:00:04.105Z,13.90
2023-02-13T11:02:34.696Z,14.07
2023-02-13T11:05:17.099Z,14.10
2023-02-13T11:07:47.861Z,14.27
2023-02-13T11:10:19.822Z,14.44
2023-02-13T11:12:48.190Z,14.58
2023-02-13T11:15:25.923Z,14.79
2023-02-13T11:17:56.083Z,14.99
2023-02-13T11:20:33.845Z,15.29
2023-02-13T11:23:34.328Z,15.52
2023-02-13T11:26:04.963Z,15.62
2023-02-13T11:28:37.980Z,15.85
2023-02-13T11:31:15.819Z,15.85
2023-02-13T11:33:43.793Z,16.24
2023-02-13T11:36:15.516Z,16.42
2023-02-13T11:38:43.325Z,16.60
2023-02-13T11:41:12.539Z,16.81
2023-02-13T11:43:48.486Z,17.21
2023-02-13T11:46:21.079Z,17.54
2023-02-13T11:49:04.172Z,18.11
2023-02-13T11:51:42.403Z,18.63
2023-02-13T11:54:24.592Z,19.16
2023-02-13T11:57:04.700Z,19.46
2023-02-13T11:59:40.989Z,19.55
2023-02-13T12:02:19.266Z,19.87
2023-02-13T12:04:48.622Z,20.96
2023-02-13T12:07:24.761Z,21.21
2023-02-13T12:09:58.623Z,21.70
2023-02-13T12:12:33.952Z,21.95
2023-02-13T12:15:04.782Z,22.05
2023-02-13T12:17:35.696Z,22.50
2023-02-13T12:20:04.518Z,23.10
2023-02-13T12:22:45.911Z,22.65
2023-02-13T12:25:29.591Z,22.24
2023-02-13T12:28:09.315Z,22.65
2023-02-13T12:30:57.559Z,23.07
2023-02-13T12:33:39.677Z,22.46
2023-02-13T12:36:16.996Z,23.36
2023-02-13T12:39:07.077Z,23.92
2023-02-13T12:41:42.265Z,23.70
2023-02-13T12:44:56.560Z,23.92
2023-02-13T12:47:27.886Z,23.46
2023-02-13T12:50:08.159Z,23.82
2023-02-13T12:52:47.904Z,23.24
2023-02-13T12:55:44.459Z,24.17
2023-02-13T12:58:34.818Z,24.71
2023-02-13T13:01:09.470Z,25.10
2023-02-13T13:03:46.482Z,25.19
2023-02-13T13:06:42.739Z,24.98
2023-02-13T13:09:31.698Z,25.20
2023-02-13T13:12:27.300Z,24.85
2023-02-13T13:15:01.576Z,25.27
2023-02-13T13:17:47.917Z,25.61
2023-02-13T13:20:52.062Z,25.74
2023-02-13T13:23:23.987Z,25.97
2023-02-13T13:26:02.940Z,25.92
2023-02-13T13:28:38.224Z,26.09
2023-02-13T13:31:07.454Z,25.52
2023-02-13T13:33:40.154Z,24.93
2023-02-13T13:36:12.828Z,25.01
2023-02-13T13:38:52.072Z,24.90
2023-02-13T13:41:29.511Z,24.75
2023-02-13T13:44:17.764Z,24.54
2023-02-13T13:46:55.203Z,24.08
2023-02-13T13:49:39.245Z,23.88
2023-02-13T13:52:22.495Z,23.84
2023-02-13T13:54:52.513Z,24.26
2023-02-13T13:57:21.760Z,24.13
2023-02-13T14:00:26.286Z,23.62
2023-02-13T14:03:29.172Z,23.80
2023-02-13T14:06:05.209Z,23.44
2023-02-13T14:08:58.894Z,22.95
2023-02-13T14:11:31.797Z,22.73
2023-02-13T14:14:00.046Z,22.31
2023-02-13T14:16:42.772Z,21.65
2023-02-13T14:19:27.121Z,21.40
2023-02-13T14:22:16.978Z,21.19
2023-02-13T14:24:51.016Z,21.01
2023-02-13T14:27:23.796Z,20.73
2023-02-13T14:29:52.319Z,20.56
2023-02-13T14:32:23.892Z,20.26
2023-02-13T14:34:55.662Z,19.95
2023-02-13T14:37:31.144Z,19.69
2023-02-13T14:40:29.411Z,19.66
2023-02-13T14:43:01.207Z,19.71
2023-02-13T14:45:33.343Z,19.55
2023-02-13T14:48:09.004Z,19.28
2023-02-13T14:50:46.810Z,19.30
2023-02-13T14:53:24.395Z,19.16
2023-02-13T14:55:58.825Z,19.20
2023-02-13T14:58:32.451Z,19.10
2023-02-13T15:01:04.669Z,19.16
2023-02-13T15:03:39.147Z,19.52
2023-02-13T15:06:15.255Z,19.66
2023-02-13T15:08:51.354Z,19.64
2023-02-13T15:11:37.481Z,19.42
2023-02-13T15:14:26.341Z,19.35
2023-02-13T15:16:58.384Z,19.13
2023-02-13T15:19:28.281Z,18.94
2023-02-13T15:21:59.491Z,18.52
2023-02-13T15:24:36.734Z,18.40
2023-02-13T15:27:06.993Z,18.26
2023-02-13T15:29:47.805Z,18.08
2023-02-13T15:32:19.622Z,18.20
2023-02-13T15:34:49.291Z,18.27
2023-02-13T15:37:22.209Z,18.22
2023-02-13T15:39:51.558Z,18.23
2023-02-13T15:42:19.485Z,18.10
2023-02-13T15:44:50.009Z,17.78
2023-02-13T15:47:27.552Z,17.80
2023-02-13T15:49:55.559Z,17.52
2023-02-13T15:52:31.448Z,17.40
2023-02-13T15:55:01.959Z,17.12
2023-02-13T15:57:30.803Z,16.88
2023-02-13T16:00:01.157Z,16.64
2023-02-13T16:02:41.295Z,16.37
2023-02-13T16:05:11.781Z,16.19
2023-02-13T16:07:49.809Z,15.94
2023-02-13T16:10:26.530Z,15.85
2023-02-13T16:12:55.439Z,15.87
2023-02-13T16:15:25.569Z,15.77
2023-02-13T16:17:53.479Z,15.60
2023-02-13T16:20:23.377Z,15.37
2023-02-13T16:22:56.119Z,15.34
2023-02-13T16:25:28.387Z,15.27
2023-02-13T16:27:58.698Z,15.21
2023-02-13T16:30:33.413Z,15.15
2023-02-13T16:33:28.064Z,15.02
2023-02-13T16:35:57.419Z,14.94
2023-02-13T16:38:32.414Z,14.90
2023-02-13T16:41:03.855Z,14.88
2023-02-13T16:43:41.426Z,14.88
2023-02-13T16:46:32.607Z,14.66
2023-02-13T16:49:07.782Z,14.61
2023-02-13T16:51:40.082Z,14.56
2023-02-13T16:54:19.030Z,14.48
2023-02-13T16:56:49.854Z,14.43
2023-02-13T16:59:25.474Z,14.38
2023-02-13T17:02:17.236Z,14.37
2023-02-13T17:04:46.901Z,14.34
2023-02-13T17:07:17.521Z,14.28
2023-02-13T17:09:45.594Z,14.33
2023-02-13T17:12:20.032Z,14.28
2023-02-13T17:14:47.971Z,14.19
2023-02-13T17:17:18.214Z,14.03
2023-02-13T17:19:46.364Z,13.91
2023-02-13T17:22:27.073Z,13.79
2023-02-13T17:24:54.896Z,13.61
2023-02-13T17:27:23.955Z,13.56
2023-02-13T17:29:51.828Z,13.50
2023-02-13T17:32:23.828Z,13.51
2023-02-13T17:34:51.885Z,13.54
2023-02-13T17:37:21.851Z,13.57
2023-02-13T17:39:50.651Z,13.57
2023-02-13T17:42:22.415Z,13.57
2023-02-13T17:44:51.595Z,13.52
2023-02-13T17:47:25.010Z,13.42
2023-02-13T17:49:59.090Z,13.24
2023-02-13T17:52:31.746Z,12.96
2023-02-13T17:54:59.616Z,12.74
2023-02-13T17:57:29.403Z,12.61
2023-02-13T17:59:59.252Z,12.58
2023-02-13T18:02:27.881Z,12.59
2023-02-13T18:04:55.799Z,12.59
2023-02-13T18:07:24.191Z,12.57
2023-02-13T18:09:52.273Z,12.47
2023-02-13T18:12:22.152Z,12.45
2023-02-13T18:14:50.742Z,12.40
2023-02-13T18:17:20.404Z,12.39
2023-02-13T18:19:50.427Z,12.38
2023-02-13T18:22:18.397Z,12.33
2023-02-13T18:24:46.086Z,12.30
2023-02-13T18:27:13.966Z,12.23
2023-02-13T18:29:41.844Z,12.14
2023-02-13T18:32:10.615Z,12.00
2023-02-13T18:34:40.676Z,11.90
2023-02-13T18:37:09.919Z,11.89
2023-02-13T18:39:37.717Z,11.79
2023-02-13T18:42:05.749Z,11.63
2023-02-13T18:44:33.711Z,11.44
2023-02-13T18:47:02.231Z,11.31
2023-02-13T18:49:30.000Z,11.26
2023-02-13T18:51:59.448Z,11.17
2023-02-13T18:54:27.424Z,11.10
2023-02-13T18:56:55.045Z,11.08
2023-02-13T18:59:23.592Z,10.92
2023-02-13T19:01:51.757Z,10.74
2023-02-13T19:04:19.588Z,10.55
2023-02-13T19:06:47.389Z,10.41
2023-02-13T19:09:16.593Z,10.40
2023-02-13T19:11:44.645Z,10.34
2023-02-13T19:14:15.052Z,10.30
2023-02-13T19:16:43.337Z,10.24
2023-02-13T19:19:11.692Z,10.18
2023-02-13T19:21:40.541Z,10.17
2023-02-13T19:24:10.456Z,10.08
2023-02-13T19:26:39.629Z,10.04
2023-02-13T19:29:07.450Z,10.00
2023-02-13T19:31:35.470Z,9.94
2023-02-13T19:34:05.706Z,9.88
2023-02-13T19:36:33.928Z,9.86
2023-02-13T19:39:03.863Z,9.80
2023-02-13T19:41:32.888Z,9.75
2023-02-13T19:44:02.182Z,9.75
2023-02-13T19:46:31.873Z,9.78
2023-02-13T19:49:00.166Z,9.74
2023-02-13T19:51:30.238Z,9.74
2023-02-13T19:53:59.336Z,9.75
2023-02-13T19:56:28.188Z,9.73
2023-02-13T19:58:56.420Z,9.78
2023-02-13T20:01:27.990Z,9.79
2023-02-13T20:03:56.537Z,9.80
2023-02-13T20:06:26.404Z,9.77
2023-02-13T20:08:54.475Z,9.72
2023-02-13T20:11:22.854Z,9.70
2023-02-13T20:13:56.490Z,9.66
2023-02-13T20:16:25.815Z,9.59
2023-02-13T20:18:53.575Z,9.51
2023-02-13T20:21:21.667Z,9.46
2023-02-13T20:23:50.366Z,9.36
2023-02-13T20:26:18.881Z,9.28
2023-02-13T20:28:48.242Z,9.21
2023-02-13T20:31:18.468Z,9.13
2023-02-13T20:33:49.694Z,9.10
2023-02-13T20:36:21.027Z,9.00
2023-02-13T20:38:50.275Z,9.02
2023-02-13T20:41:20.595Z,8.96
2023-02-13T20:43:49.219Z,8.94
2023-02-13T20:46:17.687Z,8.90
2023-02-13T20:48:50.099Z,8.81
2023-02-13T20:51:19.573Z,8.75
2023-02-13T20:53:47.905Z,8.69
2023-02-13T20:56:18.005Z,8.62
2023-02-13T20:58:48.039Z,8.53
2023-02-13T21:01:18.115Z,8.49
2023-02-13T21:03:47.858Z,8.41
2023-02-13T21:06:17.050Z,8.36
2023-02-13T21:08:45.026Z,8.30
2023-02-13T21:11:12.901Z,8.24
2023-02-13T21:13:41.035Z,8.21
2023-02-13T21:16:11.478Z,8.21
2023-02-13T21:18:41.274Z,8.13
2023-02-13T21:21:10.374Z,8.11
2023-02-13T21:23:39.822Z,8.09
2023-02-13T21:26:09.781Z,8.02
2023-02-13T21:28:38.880Z,7.95
2023-02-13T21:31:08.027Z,7.94
2023-02-13T21:33:35.908Z,7.86
2023-02-13T21:36:05.110Z,7.88
2023-02-13T21:38:32.912Z,7.88
2023-02-13T21:41:06.923Z,7.82
2023-02-13T21:43:37.607Z,7.72
2023-02-13T21:46:10.180Z,7.55
2023-02-13T21:48:38.707Z,7.47
2023-02-13T21:51:07.712Z,7.44
2023-02-13T21:53:35.529Z,7.40
2023-02-13T21:56:04.014Z,7.39
2023-02-13T21:58:35.123Z,7.36
2023-02-13T22:01:03.334Z,7.24
2023-02-13T22:03:31.204Z,7.18
2023-02-13T22:05:59.025Z,7.15
2023-02-13T22:08:26.883Z,7.15
2023-02-13T22:10:55.335Z,7.13
2023-02-13T22:13:23.838Z,7.09
2023-02-13T22:16:01.766Z,7.00
2023-02-13T22:18:32.553Z,6.98
2023-02-13T22:21:05.178Z,6.92
2023-02-13T22:23:35.231Z,6.89
2023-02-13T22:26:04.943Z,6.90
2023-02-13T22:28:32.903Z,6.88
2023-02-13T22:31:09.009Z,6.83
2023-02-13T22:33:37.159Z,6.75
2023-02-13T22:36:05.654Z,6.70
2023-02-13T22:38:34.260Z,6.71
2023-02-13T22:41:06.698Z,6.75
2023-02-13T22:43:34.528Z,6.69
2023-02-13T22:46:08.361Z,6.64
2023-02-13T22:48:37.328Z,6.60
2023-02-13T22:51:06.446Z,6.57
2023-02-13T22:53:34.727Z,6.55
2023-02-13T22:56:03.090Z,6.53
2023-02-13T22:58:31.011Z,6.55
2023-02-13T23:00:59.188Z,6.50
2023-02-13T23:03:28.727Z,6.40
2023-02-13T23:05:56.509Z,6.37
2023-02-13T23:08:24.344Z,6.28
2023-02-13T23:11:06.078Z,6.21
2023-02-13T23:13:33.726Z,6.18
2023-02-13T23:16:01.610Z,6.06
2023-02-13T23:18:29.880Z,5.91
2023-02-13T23:20:57.627Z,5.85
2023-02-13T23:23:25.523Z,5.79
2023-02-13T23:25:53.321Z,5.76
2023-02-13T23:28:21.067Z,5.72
2023-02-13T23:30:49.033Z,5.65
2023-02-13T23:33:16.879Z,5.61
2023-02-13T23:35:46.076Z,5.54
2023-02-13T23:38:13.843Z,5.49
2023-02-13T23:40:41.631Z,5.42
2023-02-13T23:43:09.502Z,5.39
2023-02-13T23:45:38.286Z,5.43
2023-02-13T23:48:06.518Z,5.41
2023-02-13T23:50:34.280Z,5.39
2023-02-13T23:53:03.446Z,5.30
2023-02-13T23:55:31.238Z,5.26
2023-02-13T23:57:59.004Z,5.27
